الصفحة الرئيسية
METAR-TAF:

METAR-TAF

مطار :

بروناي, بروناي

دائرة عرض: 04-56N, خط طول: 114-56E, ارتفاع: 22 متر

مراقبة الطقس الحالي

تاريخ ووقت الإصدار 24 دقيقة قبل الساعة 00:00UTC
ريح 3 عقدة من الجنوب
درجة الحرارة 29°درجة مئوية
الرطوبة 79%
ضغط 1009 hPa
الرؤية: 8000 متر
غيوم قليلة على ارتفاع 1500 قدم
غيوم مفككة على ارتفاع 30000 قدم

METAR: WBSB 180000Z 18003KT 8000 FEW015 BKN300 29/25 Q1009 NOSIG

زمن: 08:24 (00:24 UTC)

توقعات

تاريخ ووقت الإصدار 1ساعة و 24 دقيقة قبل الساعة 23:00UTC
التوقعات صالحة من18 الساعة 00 UTC إلى 19 الساعة 06 UTC
ريح 4 عقدة من الجنوب/الجنوب الغربي
الرؤية: 7000 متر
غيوم قليلة على ارتفاع 1600 قدم
أصبح
من 18 الساعة 04 UTC إلى 18 الساعة 06 UTC
ريح 8 عقدة من الغرب/الشمال الغربي
غيوم قليلة على ارتفاع 1700 قدم
غيوم قليلة على ارتفاع 1800 قدم, مزنة ركامية.

TAF: WBSB 172300Z 1800/1906 20004KT 7000 FEW016 BECMG 1804/1806 30008KT FEW017 FEW018CB

أرصاد الطقس والتوقعات من أكثر من 4000 مطار (تقارير الطقس للمطار METAR والتنبؤ بالطقس بالمطارTAF).

المحطات المتاحة هي النقط الصفراء والحمراء على الخريطة.

حرك المؤشر فوق النقطة لمعرفة اسم المحطة.

ثم انقر لمعرفة أرصاد وتوقعات الطقس.

لتغيير الخارطة: اضغط على الأزرار الخضراء مع رمز الصليب الأسود للتكبير. على الزر الأخضر مع شرطة للتصغير، أو على الأسهم الخضراء للخرائط المجاورة.


METAR-TAF: